Time;durP1;ratioP1;P1;durP2;ratioP2;P2;SDS_P1;SDS_P2;PMS_P1;PMS_P2;Temp;Humidity;BMP_temperature;BMP_pressure;BME280_temperature;BME280_humidity;BME280_pressure;Samples;Min_cycle;Max_cycle;Signal;HPM_P1;HPM_P2
2022/05/25 00:00:13;;;;;;;2.42;1.65;;;;;;;5.18;55.87;99559.06;5032163;28;20132;-51
2022/05/25 00:02:39;;;;;;;1.98;1.33;;;;;;;5.11;56.57;99563.06;5031623;28;20030;-51
2022/05/25 00:05:06;;;;;;;1.98;1.30;;;;;;;5.02;56.53;99567.97;5032149;28;20120;-53
2022/05/25 00:07:32;;;;;;;1.48;1.20;;;;;;;4.85;56.25;99537.19;5031802;28;20522;-53
2022/05/25 00:09:57;;;;;;;3.45;1.60;;;;;;;4.96;57.01;99573.69;5031408;28;20037;-54
2022/05/25 00:12:23;;;;;;;1.95;1.55;;;;;;;4.91;57.08;99570.47;5031876;28;20044;-51
2022/05/25 00:14:49;;;;;;;1.60;1.20;;;;;;;4.87;56.96;99577.75;5031285;28;20121;-52
2022/05/25 00:17:14;;;;;;;1.88;1.23;;;;;;;4.84;57.04;99579.75;5031407;28;20850;-54
2022/05/25 00:22:24;;;;;;;2.83;1.70;;;;;;;4.62;57.69;99543.91;5031303;28;20025;-51
2022/05/25 00:24:49;;;;;;;1.88;1.58;;;;;;;4.79;57.37;99572.06;5031664;28;20029;-51
2022/05/25 00:27:17;;;;;;;4.10;1.35;;;;;;;4.76;58.14;99584.63;5031447;28;20541;-54
2022/05/25 00:29:43;;;;;;;3.60;1.90;;;;;;;4.53;57.68;99547.09;5031093;28;20091;-51
2022/05/25 00:32:09;;;;;;;3.53;1.70;;;;;;;4.59;58.02;99567.97;5031517;28;20110;-52
2022/05/25 00:34:34;;;;;;;3.65;1.73;;;;;;;4.66;58.12;99584.34;5031533;28;20032;-51
2022/05/25 00:37:00;;;;;;;3.35;1.98;;;;;;;4.60;58.22;99577.63;5031230;28;20106;-53
2022/05/25 00:39:25;;;;;;;2.40;1.58;;;;;;;4.59;58.59;99586.53;5031503;28;20631;-51
2022/05/25 00:41:51;;;;;;;6.65;2.03;;;;;;;4.57;58.38;99597.22;5030947;28;20116;-52
2022/05/25 00:44:17;;;;;;;3.05;1.88;;;;;;;4.53;58.43;99594.81;5030662;28;20037;-53
2022/05/25 00:46:43;;;;;;;6.45;1.88;;;;;;;4.44;58.92;99586.47;5031328;28;20028;-50
2022/05/25 00:49:21;;;;;;;2.85;1.95;;;;;;;4.51;59.59;99596.72;5030990;28;20393;-52
2022/05/25 00:51:50;;;;;;;3.42;2.10;;;;;;;4.48;59.29;99612.81;5030831;28;20033;-54
2022/05/25 00:54:20;;;;;;;7.90;2.50;;;;;;;4.47;59.39;99611.09;5030949;28;20046;-54
2022/05/25 00:56:50;;;;;;;3.53;2.10;;;;;;;4.42;59.31;99606.06;5030616;28;20512;-55
2022/05/25 00:59:26;;;;;;;4.63;2.75;;;;;;;4.47;59.46;99619.06;5030233;28;20037;-55
2022/05/25 01:01:52;;;;;;;3.58;2.28;;;;;;;4.37;59.56;99606.34;5030779;28;20030;-56
2022/05/25 01:04:18;;;;;;;5.25;2.53;;;;;;;4.34;59.36;99601.22;5030859;28;20029;-52
2022/05/25 01:07:21;;;;;;;4.45;2.63;;;;;;;4.49;59.18;99614.50;5030838;28;20123;-51
2022/05/25 01:09:46;;;;;;;4.45;2.67;;;;;;;4.40;59.95;99607.94;5030749;28;20033;-54
2022/05/25 01:12:42;;;;;;;4.88;2.47;;;;;;;4.45;59.69;99617.34;5030419;28;20068;-53
2022/05/25 01:15:14;;;;;;;7.45;2.75;;;;;;;4.42;59.17;99608.72;5031149;28;20033;-55
2022/05/25 01:17:58;;;;;;;5.40;2.80;;;;;;;4.49;59.50;99612.72;5030816;28;20120;-52
2022/05/25 01:20:42;;;;;;;6.20;2.45;;;;;;;4.45;59.74;99614.69;5024393;28;20045;-56
2022/05/25 01:23:34;;;;;;;3.95;2.60;;;;;;;4.49;59.97;99619.81;5030832;28;20044;-52
2022/05/25 01:26:31;;;;;;;6.50;2.58;;;;;;;4.56;59.27;99616.72;5030748;28;20065;-53
2022/05/25 01:29:09;;;;;;;4.30;2.47;;;;;;;4.55;59.35;99615.00;5030219;28;20030;-48
2022/05/25 01:31:59;;;;;;;8.43;2.35;;;;;;;4.58;59.18;99611.31;5030243;28;20060;-56
2022/05/25 01:34:39;;;;;;;4.32;2.30;;;;;;;4.62;59.55;99620.81;5028786;28;20033;-55
2022/05/25 01:37:07;;;;;;;4.93;2.70;;;;;;;4.59;59.22;99621.00;5030192;28;20052;-52
2022/05/25 01:39:40;;;;;;;3.40;2.35;;;;;;;4.61;59.94;99624.41;5029951;28;20041;-53
2022/05/25 01:42:18;;;;;;;3.70;2.55;;;;;;;4.64;59.13;99624.22;5030295;28;20029;-50
2022/05/25 01:44:51;;;;;;;4.93;2.70;;;;;;;4.64;59.59;99621.56;5030218;28;20485;-54
2022/05/25 01:47:18;;;;;;;4.32;2.17;;;;;;;4.67;59.71;99632.00;5029963;28;20118;-49
2022/05/25 01:50:09;;;;;;;5.55;2.67;;;;;;;4.80;59.06;99633.91;5030297;28;20088;-50
2022/05/25 01:52:41;;;;;;;4.70;2.47;;;;;;;4.78;59.42;99631.34;5029898;28;20113;-52
2022/05/25 01:55:13;;;;;;;5.45;2.13;;;;;;;4.84;58.71;99640.75;5030087;28;20045;-53
2022/05/25 01:57:44;;;;;;;2.70;2.28;;;;;;;4.87;59.24;99640.56;5030330;28;20052;-52
2022/05/25 02:00:24;;;;;;;4.25;2.42;;;;;;;4.81;58.78;99632.94;5010546;28;20037;-50
2022/05/25 02:05:37;;;;;;;3.60;2.35;;;;;;;5.02;58.88;99646.75;5030005;28;20041;-53
2022/05/25 02:08:08;;;;;;;7.28;2.50;;;;;;;5.11;58.47;99640.03;5030047;28;20029;-49
2022/05/25 02:11:00;;;;;;;5.65;2.55;;;;;;;5.16;58.48;99646.75;5029860;28;20049;-52
2022/05/25 02:13:51;;;;;;;3.78;2.40;;;;;;;5.28;57.94;99641.66;5019633;28;20041;-51
2022/05/25 02:16:38;;;;;;;5.07;2.38;;;;;;;5.43;57.75;99645.16;5030254;28;20087;-54
2022/05/25 02:19:24;;;;;;;3.47;2.30;;;;;;;5.57;57.16;99645.16;5010148;28;20034;-52
2022/05/25 02:21:49;;;;;;;;;;;;;;;5.89;55.76;99649.34;5029859;28;20022;-54
2022/05/25 02:24:28;;;;;;;6.03;2.60;;;;;;;6.02;56.11;99655.63;5030271;28;19912;-53
2022/05/25 02:27:03;;;;;;;4.30;2.58;;;;;;;6.33;55.37;99652.78;5030031;28;20259;-55
2022/05/25 02:29:39;;;;;;;3.35;2.25;;;;;;;6.72;54.40;99653.72;5029767;28;20041;-53
2022/05/25 02:32:15;;;;;;;4.65;2.25;;;;;;;7.05;53.21;99648.88;5031876;28;20037;-49
2022/05/25 02:34:46;;;;;;;3.92;2.50;;;;;;;7.37;52.18;99650.25;5033786;28;20034;-55
2022/05/25 02:37:12;;;;;;;5.88;2.75;;;;;;;7.44;51.40;99644.41;5033451;28;20401;-51
2022/05/25 02:39:38;;;;;;;4.95;2.65;;;;;;;7.33;51.42;99644.28;5032996;28;20041;-52
2022/05/25 02:42:12;;;;;;;6.10;3.03;;;;;;;7.27;52.12;99640.25;5033415;28;20033;-51
2022/05/25 02:44:38;;;;;;;4.72;3.15;;;;;;;7.12;52.32;99644.84;5033166;28;20484;-53
2022/05/25 02:47:04;;;;;;;2.85;2.33;;;;;;;7.00;52.35;99643.03;5033206;28;20052;-51
2022/05/25 02:49:29;;;;;;;4.22;2.80;;;;;;;6.88;52.83;99636.72;5033270;28;20030;-54
2022/05/25 02:51:55;;;;;;;2.85;2.30;;;;;;;6.87;53.00;99645.66;5033059;28;20029;-55
2022/05/25 02:54:22;;;;;;;5.00;3.00;;;;;;;6.75;52.89;99621.63;5033212;28;20128;-55
2022/05/25 02:56:48;;;;;;;4.75;2.90;;;;;;;6.86;53.15;99643.97;5032733;28;20037;-53
2022/05/25 02:59:14;;;;;;;3.88;2.38;;;;;;;6.84;52.54;99645.88;5033314;28;20033;-51
2022/05/25 03:01:39;;;;;;;5.43;3.15;;;;;;;6.89;52.64;99638.44;5033338;28;20385;-55
2022/05/25 03:04:05;;;;;;;3.72;2.63;;;;;;;6.93;52.77;99642.59;5033329;28;20095;-55
2022/05/25 03:06:31;;;;;;;6.43;2.90;;;;;;;7.06;52.22;99631.94;5032221;28;20108;-51
2022/05/25 03:08:56;;;;;;;4.65;2.55;;;;;;;7.20;52.00;99641.63;5032664;28;20112;-55
2022/05/25 03:11:22;;;;;;;4.05;2.58;;;;;;;7.32;51.79;99637.25;5032906;28;20037;-49
2022/05/25 03:13:49;;;;;;;4.03;2.30;;;;;;;7.56;51.26;99637.34;5032805;28;20108;-54
2022/05/25 03:16:16;;;;;;;6.38;2.50;;;;;;;7.92;50.51;99644.59;5032813;28;20159;-53
2022/05/25 03:18:43;;;;;;;4.28;2.58;;;;;;;8.43;49.29;99643.56;5031078;28;20037;-49
2022/05/25 03:21:09;;;;;;;2.92;2.20;;;;;;;8.97;47.79;99636.84;5032704;28;20034;-52
2022/05/25 03:23:35;;;;;;;4.00;1.88;;;;;;;9.69;45.80;99639.34;5032298;28;20079;-54
2022/05/25 03:26:01;;;;;;;3.40;1.98;;;;;;;10.22;44.20;99635.09;5032388;28;20454;-54
2022/05/25 03:28:26;;;;;;;4.25;2.10;;;;;;;10.87;42.86;99641.28;5032106;28;20064;-54
2022/05/25 03:30:52;;;;;;;5.03;1.90;;;;;;;11.59;40.91;99640.53;5032434;28;20120;-55
2022/05/25 03:33:17;;;;;;;5.50;2.20;;;;;;;12.27;39.53;99639.03;5032753;28;20035;-57
2022/05/25 03:35:43;;;;;;;3.83;2.10;;;;;;;12.89;38.07;99644.13;5031039;28;20021;-54
2022/05/25 03:38:09;;;;;;;3.95;2.95;;;;;;;13.48;36.56;99638.63;5031953;28;20385;-54
2022/05/25 03:40:35;;;;;;;6.68;3.15;;;;;;;13.94;35.51;99644.09;5032197;28;20139;-51
2022/05/25 03:43:00;;;;;;;3.17;2.72;;;;;;;14.45;34.38;99643.63;5031496;28;20453;-55
2022/05/25 03:45:26;;;;;;;5.15;3.13;;;;;;;14.93;32.95;99655.88;5031893;28;20104;-55
2022/05/25 03:47:52;;;;;;;4.82;2.78;;;;;;;15.42;31.99;99643.72;5032035;28;20469;-54
2022/05/25 03:50:18;;;;;;;5.05;2.83;;;;;;;15.91;31.25;99642.28;5030793;28;20025;-55
2022/05/25 03:52:44;;;;;;;4.22;3.13;;;;;;;16.38;30.35;99631.94;5031961;28;20357;-51
2022/05/25 03:55:10;;;;;;;3.03;2.60;;;;;;;17.14;29.06;99642.63;5031788;28;20053;-52
2022/05/25 03:57:37;;;;;;;4.72;2.90;;;;;;;17.65;27.92;99651.28;5031142;28;20040;-53
2022/05/25 04:00:05;;;;;;;3.63;2.83;;;;;;;17.93;27.48;99641.84;5031644;28;20033;-52
2022/05/25 04:02:30;;;;;;;3.47;2.83;;;;;;;18.27;26.76;99640.72;5030699;28;20101;-52
2022/05/25 04:05:08;;;;;;;3.28;2.95;;;;;;;18.98;25.63;99644.25;5031949;28;20431;-52
2022/05/25 04:07:35;;;;;;;3.78;2.70;;;;;;;19.70;24.67;99653.72;5032169;28;20120;-56
2022/05/25 04:10:01;;;;;;;3.50;2.45;;;;;;;20.33;23.64;99642.38;5031196;28;20036;-53
2022/05/25 04:12:26;;;;;;;5.50;2.53;;;;;;;20.82;22.82;99639.13;5031375;28;20401;-53
2022/05/25 04:14:52;;;;;;;2.60;2.40;;;;;;;21.29;22.03;99639.47;5031456;28;20029;-55
2022/05/25 04:17:19;;;;;;;3.97;2.53;;;;;;;21.26;21.97;99639.88;5030454;28;20041;-55
2022/05/25 04:19:44;;;;;;;5.05;2.80;;;;;;;20.65;22.67;99634.78;5030720;28;20029;-54
2022/05/25 04:22:10;;;;;;;4.93;2.78;;;;;;;21.01;21.72;99645.75;5021227;28;20056;-56
2022/05/25 04:24:35;;;;;;;3.95;3.25;;;;;;;21.47;21.06;99644.44;5017751;28;20041;-51
2022/05/25 04:27:01;;;;;;;3.20;2.90;;;;;;;21.59;21.22;99639.28;5016229;28;20464;-56
2022/05/25 04:29:27;;;;;;;3.40;2.83;;;;;;;21.34;21.63;99637.84;5028940;28;20457;-55
2022/05/25 04:31:52;;;;;;;3.00;2.70;;;;;;;22.24;20.62;99641.66;5021127;28;20112;-56
2022/05/25 04:34:17;;;;;;;2.90;2.47;;;;;;;23.39;18.85;99637.16;5024937;28;20511;-55
2022/05/25 04:36:44;;;;;;;2.90;2.38;;;;;;;22.91;18.90;99646.44;5016422;28;20406;-56
2022/05/25 04:39:09;;;;;;;3.80;2.63;;;;;;;23.76;18.74;99650.31;5026966;28;20057;-57
2022/05/25 04:41:36;;;;;;;3.17;2.88;;;;;;;24.83;17.10;99656.31;5028793;28;20072;-56
2022/05/25 04:44:03;;;;;;;3.80;2.35;;;;;;;25.53;16.26;99663.53;5028820;28;20029;-56
2022/05/25 04:46:30;;;;;;;2.75;2.10;;;;;;;26.05;15.63;99651.38;5026582;28;20033;-54
2022/05/25 04:48:55;;;;;;;2.33;2.10;;;;;;;26.79;14.44;99651.19;5029485;28;20461;-53
2022/05/25 04:51:20;;;;;;;3.53;1.80;;;;;;;25.78;15.40;99659.88;5029749;28;20029;-60
2022/05/25 04:53:46;;;;;;;2.60;2.05;;;;;;;23.72;17.20;99671.75;5019006;28;20481;-54
2022/05/25 04:58:56;;;;;;;3.35;1.98;;;;;;;23.26;17.68;99668.06;5051873;28;20527;-52
2022/05/25 05:01:22;;;;;;;1.95;1.60;;;;;;;22.36;17.68;99672.75;5014445;28;20033;-56
2022/05/25 05:03:48;;;;;;;3.38;1.88;;;;;;;22.18;18.30;99670.56;5024696;28;20025;-55
2022/05/25 05:06:14;;;;;;;1.50;1.35;;;;;;;22.18;17.87;99667.84;5019445;28;20021;-55
2022/05/25 05:08:39;;;;;;;1.27;1.17;;;;;;;21.13;18.02;99670.56;5019841;28;20021;-55
2022/05/25 05:11:09;;;;;;;2.20;0.82;;;;;;;19.78;19.51;99666.38;5026604;28;20057;-54
2022/05/25 05:13:36;;;;;;;1.08;0.90;;;;;;;18.39;20.84;99670.97;5029495;28;20124;-55
2022/05/25 05:16:13;;;;;;;1.27;1.00;;;;;;;17.74;22.18;99670.22;5028713;28;20049;-54
2022/05/25 05:18:39;;;;;;;1.40;1.30;;;;;;;17.19;22.82;99672.72;5028371;28;20029;-51
2022/05/25 05:21:05;;;;;;;1.60;1.50;;;;;;;19.38;20.91;99665.78;5029421;28;20028;-55
2022/05/25 05:23:31;;;;;;;3.22;1.17;;;;;;;23.00;17.30;99661.53;5029537;28;20529;-51
2022/05/25 05:25:56;;;;;;;3.25;1.15;;;;;;;26.34;13.92;99654.38;5026453;28;20037;-54
2022/05/25 05:28:30;;;;;;;2.15;1.42;;;;;;;29.33;11.67;99658.28;5026707;28;20049;-55
2022/05/25 05:30:57;;;;;;;2.10;1.30;;;;;;;31.15;10.57;99658.44;5027532;28;20026;-54
2022/05/25 05:33:25;;;;;;;1.50;1.40;;;;;;;32.67;9.49;99664.41;5029423;28;20041;-55
2022/05/25 05:36:09;;;;;;;6.35;1.50;;;;;;;34.74;9.41;99655.53;5026776;28;20031;-52
2022/05/25 05:38:40;;;;;;;1.33;1.10;;;;;;;35.80;7.61;99650.34;5027474;28;20025;-53
2022/05/25 05:41:06;;;;;;;1.38;1.27;;;;;;;36.02;6.72;99657.34;5018483;28;20129;-52
2022/05/25 05:43:31;;;;;;;1.20;1.10;;;;;;;36.46;6.82;99658.13;5029322;28;20528;-51
2022/05/25 05:45:57;;;;;;;2.70;1.00;;;;;;;37.32;6.39;99645.84;5029616;28;20028;-50
2022/05/25 05:48:26;;;;;;;1.40;1.30;;;;;;;37.37;6.31;99646.88;5028987;28;20025;-58
2022/05/25 05:50:56;;;;;;;2.10;1.20;;;;;;;35.49;7.29;99656.25;5024267;28;20833;-59
2022/05/25 05:53:26;;;;;;;1.38;1.27;;;;;;;33.01;8.78;99650.06;5029253;28;20029;-58
2022/05/25 05:55:52;;;;;;;1.88;1.50;;;;;;;30.00;10.34;99645.38;5026217;28;20041;-58
2022/05/25 05:58:18;;;;;;;3.75;1.80;;;;;;;27.57;11.95;99655.81;5029038;28;20087;-57
2022/05/25 06:00:43;;;;;;;3.47;1.42;;;;;;;26.61;13.14;99649.31;5028574;28;20033;-52
2022/05/25 06:03:09;;;;;;;1.35;1.25;;;;;;;25.14;13.76;99619.84;5026201;28;20108;-53
2022/05/25 06:05:35;;;;;;;2.53;1.65;;;;;;;23.59;15.17;99642.56;5030463;28;20030;-54
2022/05/25 06:08:13;;;;;;;2.25;1.50;;;;;;;24.28;15.53;99646.75;5032648;28;20029;-53
2022/05/25 06:10:40;;;;;;;5.68;1.90;;;;;;;25.91;13.36;99643.28;5034000;28;20121;-53
2022/05/25 06:13:07;;;;;;;2.25;1.65;;;;;;;27.70;11.65;99637.38;5034213;28;20033;-54
2022/05/25 06:21:02;;;;;;;4.05;1.95;;;;;;;31.69;8.90;99642.75;5032170;28;20408;-50
2022/05/25 06:23:28;;;;;;;2.17;1.65;;;;;;;32.63;8.86;99637.25;5034172;28;20029;-49
2022/05/25 06:25:53;;;;;;;1.70;1.60;;;;;;;33.69;8.11;99643.28;5031760;28;20025;-54
2022/05/25 06:28:19;;;;;;;1.70;1.60;;;;;;;35.05;6.86;99635.81;5034204;28;20026;-53
2022/05/25 06:30:45;;;;;;;2.17;1.58;;;;;;;35.55;6.87;99637.56;5033213;28;20104;-52
2022/05/25 06:33:10;;;;;;;2.17;1.50;;;;;;;35.82;6.37;99636.94;5031441;28;20038;-56
2022/05/25 06:35:36;;;;;;;1.95;1.70;;;;;;;36.92;6.30;99634.28;5032781;28;20117;-58
2022/05/25 06:38:03;;;;;;;1.75;1.63;;;;;;;38.05;5.46;99622.06;5027618;28;20049;-55
2022/05/25 06:40:29;;;;;;;2.55;1.63;;;;;;;37.10;5.71;99637.31;5033121;28;20083;-56
2022/05/25 06:42:55;;;;;;;1.70;1.60;;;;;;;32.89;8.37;99633.69;5027796;28;20037;-60
2022/05/25 06:45:21;;;;;;;2.95;1.58;;;;;;;30.99;9.42;99632.59;5012616;28;20116;-53
2022/05/25 06:47:46;;;;;;;7.45;1.90;;;;;;;32.82;8.34;99641.44;5013808;28;20088;-60
2022/05/25 06:50:13;;;;;;;2.92;1.60;;;;;;;35.25;7.18;99640.38;5018366;28;20030;-53
2022/05/25 06:52:38;;;;;;;2.97;1.58;;;;;;;36.12;6.76;99640.47;5032519;28;20068;-53
2022/05/25 06:55:04;;;;;;;1.42;1.33;;;;;;;34.93;7.01;99633.38;5032624;28;20145;-58
2022/05/25 06:57:30;;;;;;;1.30;1.20;;;;;;;32.35;8.75;99633.91;5028471;28;20040;-55
2022/05/25 06:59:56;;;;;;;2.67;1.30;;;;;;;29.61;10.19;99645.47;5032728;28;20128;-54
2022/05/25 07:02:23;;;;;;;2.47;1.25;;;;;;;27.40;12.05;99649.34;5033245;28;20053;-57
2022/05/25 07:04:49;;;;;;;3.50;1.40;;;;;;;27.39;12.32;99642.16;5032385;28;20069;-58
2022/05/25 07:07:14;;;;;;;1.55;1.40;;;;;;;30.67;9.89;99628.78;5031158;28;20911;-55
2022/05/25 07:09:40;;;;;;;3.05;1.48;;;;;;;33.47;8.16;99635.28;5031512;28;20485;-51
2022/05/25 07:12:07;;;;;;;4.43;1.40;;;;;;;33.03;8.22;99615.38;5031411;28;20049;-56
2022/05/25 07:14:32;;;;;;;2.08;1.45;;;;;;;31.78;8.19;99628.16;5032862;28;20034;-55
2022/05/25 07:17:01;;;;;;;1.70;1.60;;;;;;;33.58;7.60;99639.72;5030662;28;20128;-59
2022/05/25 07:19:27;;;;;;;1.80;1.55;;;;;;;35.95;6.59;99637.38;5031989;28;20101;-55
2022/05/25 07:21:53;;;;;;;7.32;2.25;;;;;;;37.64;5.86;99626.53;5032562;28;20121;-55
2022/05/25 07:24:18;;;;;;;2.78;2.05;;;;;;;38.40;5.40;99625.19;5031900;28;20444;-57
2022/05/25 07:26:44;;;;;;;3.05;1.88;;;;;;;38.71;4.85;99629.25;5031540;28;20087;-55
2022/05/25 07:29:09;;;;;;;1.95;1.85;;;;;;;38.93;4.91;99625.59;5030071;28;20366;-55
2022/05/25 07:31:39;;;;;;;2.30;2.10;;;;;;;39.22;4.66;99627.06;5032488;28;20120;-59
2022/05/25 07:34:08;;;;;;;1.90;1.80;;;;;;;40.55;4.32;99628.25;5032458;28;20120;-55
2022/05/25 07:36:35;;;;;;;1.88;1.77;;;;;;;40.99;3.89;99639.44;5031321;28;20036;-56
2022/05/25 07:39:04;;;;;;;1.90;1.80;;;;;;;42.15;3.55;99625.34;5031124;28;20038;-55
2022/05/25 07:41:31;;;;;;;1.77;1.40;;;;;;;39.67;4.38;99625.28;5031765;28;20482;-55
2022/05/25 07:43:57;;;;;;;1.83;1.73;;;;;;;35.61;6.29;99631.63;5031962;28;20476;-62
2022/05/25 07:46:25;;;;;;;3.67;1.70;;;;;;;31.83;8.50;99629.28;5030943;28;20033;-59
2022/05/25 07:48:51;;;;;;;1.90;1.67;;;;;;;28.30;10.76;99621.53;5029947;28;20492;-60
2022/05/25 07:51:17;;;;;;;2.67;1.60;;;;;;;25.55;12.69;99609.31;5031307;28;20145;-55
2022/05/25 07:53:58;;;;;;;1.55;1.45;;;;;;;23.78;14.71;99629.06;5029382;28;20036;-54
2022/05/25 07:56:30;;;;;;;1.70;1.55;;;;;;;22.50;15.48;99613.63;5031120;28;20041;-55
2022/05/25 07:58:57;;;;;;;1.88;1.55;;;;;;;23.75;14.91;99630.34;5031432;28;20037;-56
2022/05/25 08:06:56;;;;;;;1.30;1.20;;;;;;;28.53;10.89;99625.25;5017627;28;20025;-57
2022/05/25 08:09:22;;;;;;;6.40;1.50;;;;;;;25.93;12.61;99632.09;5029292;28;20042;-58
2022/05/25 08:11:48;;;;;;;1.30;1.20;;;;;;;23.58;14.70;99637.34;5030869;28;20041;-58
2022/05/25 08:14:13;;;;;;;2.75;1.60;;;;;;;22.21;15.74;99626.56;5029698;28;20060;-56
2022/05/25 08:16:39;;;;;;;1.52;1.40;;;;;;;21.89;16.36;99606.31;5030825;28;20492;-59
2022/05/25 08:19:04;;;;;;;3.67;1.60;;;;;;;22.28;16.39;99631.19;5031281;28;20112;-57
2022/05/25 08:21:30;;;;;;;2.75;1.52;;;;;;;21.69;17.20;99623.41;5031075;28;20480;-60
2022/05/25 08:23:55;;;;;;;1.67;1.58;;;;;;;20.23;19.31;99626.38;5029240;28;20076;-56
2022/05/25 08:26:21;;;;;;;2.10;1.65;;;;;;;19.41;19.61;99635.53;5030638;28;20345;-56
2022/05/25 08:28:46;;;;;;;3.72;1.58;;;;;;;18.93;19.79;99645.66;5031458;28;20025;-57
2022/05/25 08:31:12;;;;;;;3.70;2.03;;;;;;;18.53;20.24;99636.81;5030669;28;20030;-57
2022/05/25 08:33:37;;;;;;;1.83;1.40;;;;;;;18.24;20.75;99603.13;5031008;28;20505;-56
2022/05/25 08:36:03;;;;;;;2.08;1.63;;;;;;;18.45;20.76;99634.16;5029659;28;20618;-58
2022/05/25 08:38:28;;;;;;;1.55;1.35;;;;;;;18.47;20.94;99632.94;5030996;28;20067;-56
2022/05/25 08:40:55;;;;;;;4.07;1.60;;;;;;;18.10;20.64;99633.69;5029635;28;20393;-54
2022/05/25 08:43:41;;;;;;;1.52;1.42;;;;;;;18.12;21.01;99634.34;5030454;28;20026;-53
2022/05/25 08:46:07;;;;;;;2.25;1.38;;;;;;;17.79;20.78;99629.91;5030656;28;20037;-52
2022/05/25 08:48:34;;;;;;;2.45;1.23;;;;;;;17.62;20.91;99630.00;5031090;28;20120;-58
2022/05/25 08:51:04;;;;;;;2.60;1.48;;;;;;;17.68;20.81;99623.00;5030245;28;20038;-57
2022/05/25 08:53:30;;;;;;;1.80;1.52;;;;;;;17.75;20.90;99620.44;5030422;28;20045;-58
2022/05/25 08:56:26;;;;;;;1.55;1.40;;;;;;;18.12;20.75;99618.97;5029106;28;20040;-56
2022/05/25 08:59:07;;;;;;;4.10;1.80;;;;;;;18.29;20.34;99624.25;5029584;28;20041;-52
2022/05/25 09:01:47;;;;;;;1.92;1.73;;;;;;;18.30;20.37;99617.81;5030243;28;20037;-52
2022/05/25 09:04:37;;;;;;;3.40;1.35;;;;;;;18.02;20.96;99612.91;5030393;28;20143;-55
2022/05/25 09:07:29;;;;;;;1.98;1.60;;;;;;;17.68;21.20;99624.91;5011140;28;20040;-55
2022/05/25 09:09:55;;;;;;;1.58;1.45;;;;;;;17.39;21.93;99624.47;5029550;28;20536;-59
2022/05/25 09:12:20;;;;;;;5.38;1.95;;;;;;;17.56;22.22;99621.72;5030124;28;20029;-54
2022/05/25 09:14:56;;;;;;;3.17;1.50;;;;;;;17.91;21.37;99622.25;5030183;28;20408;-56
2022/05/25 09:17:27;;;;;;;3.05;1.60;;;;;;;18.05;21.55;99628.78;5030257;28;20037;-56
2022/05/25 09:19:53;;;;;;;3.58;1.42;;;;;;;18.08;20.87;99614.91;5030078;28;20486;-55
2022/05/25 09:22:23;;;;;;;1.58;1.40;;;;;;;18.26;20.79;99624.63;5029316;28;20030;-55
2022/05/25 09:24:52;;;;;;;7.10;1.80;;;;;;;18.27;20.94;99624.44;5030061;28;20100;-59
2022/05/25 09:27:25;;;;;;;2.65;1.70;;;;;;;18.01;20.90;99616.59;5029236;28;20041;-56
2022/05/25 09:29:55;;;;;;;2.38;1.50;;;;;;;17.44;21.22;99616.66;5030281;28;20106;-57
2022/05/25 09:32:38;;;;;;;2.33;1.30;;;;;;;17.49;21.71;99618.84;5029998;28;20044;-56
2022/05/25 09:35:08;;;;;;;1.80;1.50;;;;;;;17.78;21.61;99614.69;5029335;28;20037;-56
2022/05/25 09:37:50;;;;;;;2.20;1.38;;;;;;;17.97;21.19;99612.56;5030193;28;20025;-56
2022/05/25 09:40:39;;;;;;;2.80;1.75;;;;;;;17.77;21.34;99616.56;5030530;28;20033;-57
2022/05/25 09:43:09;;;;;;;2.47;1.50;;;;;;;17.58;22.11;99604.25;5034315;28;20049;-53
2022/05/25 09:45:56;;;;;;;4.00;1.48;;;;;;;17.70;21.52;99610.16;5033709;28;20033;-59
2022/05/25 09:48:22;;;;;;;1.80;1.40;;;;;;;17.70;21.45;99606.59;5027987;28;20033;-58
2022/05/25 09:51:04;;;;;;;2.72;1.48;;;;;;;18.19;21.26;99611.78;5033964;28;20041;-59
2022/05/25 09:53:41;;;;;;;6.72;1.60;;;;;;;18.55;20.58;99609.50;5033450;28;20476;-58
2022/05/25 09:56:23;;;;;;;4.45;1.50;;;;;;;18.76;20.51;99611.56;5034312;28;20099;-58
2022/05/25 09:58:55;;;;;;;1.52;1.17;;;;;;;18.54;20.18;99608.69;5033324;28;20042;-55
2022/05/25 10:01:31;;;;;;;1.67;1.50;;;;;;;18.21;20.41;99612.47;5033671;28;20170;-52
2022/05/25 10:03:59;;;;;;;2.95;1.35;;;;;;;17.54;20.59;99605.63;5033333;28;20025;-58
2022/05/25 10:06:34;;;;;;;1.73;1.40;;;;;;;17.05;21.35;99607.47;5033760;28;20041;-56
2022/05/25 10:09:10;;;;;;;2.05;1.70;;;;;;;16.87;21.58;99606.78;5034124;28;20045;-56
2022/05/25 10:11:45;;;;;;;1.95;1.45;;;;;;;16.65;21.62;99601.06;5033643;28;20388;-56
2022/05/25 10:14:25;;;;;;;2.33;1.40;;;;;;;16.64;22.22;99602.09;5032805;28;20026;-56
2022/05/25 10:16:57;;;;;;;2.28;1.42;;;;;;;16.78;21.94;99605.97;5032914;28;20556;-56
2022/05/25 10:19:23;;;;;;;3.33;1.80;;;;;;;17.07;21.88;99567.56;5031710;28;20595;-59
2022/05/25 10:21:59;;;;;;;3.15;1.55;;;;;;;17.76;21.03;99587.81;5031873;28;20033;-57
2022/05/25 10:24:36;;;;;;;1.75;1.60;;;;;;;18.16;20.90;99585.06;5033835;28;20030;-58
2022/05/25 10:27:03;;;;;;;2.47;1.92;;;;;;;18.57;20.88;99583.09;5033451;28;20044;-55
2022/05/25 10:38:30;;;;;;;2.10;1.52;;;;;;;18.93;19.88;99583.25;5032839;28;20037;-57
2022/05/25 10:41:37;;;;;;;2.33;1.77;;;;;;;18.84;20.39;99578.09;5032975;28;20037;-57
2022/05/25 10:44:02;;;;;;;4.15;1.55;;;;;;;18.83;20.07;99584.53;5032662;28;20025;-55
2022/05/25 10:46:30;;;;;;;2.90;1.90;;;;;;;18.55;20.58;99574.25;5033032;28;20060;-57
2022/05/25 10:49:35;;;;;;;3.08;1.67;;;;;;;18.68;20.41;99569.06;5032960;28;20030;-53
2022/05/25 10:52:09;;;;;;;1.67;1.45;;;;;;;18.47;20.58;99557.03;5031765;28;20037;-55
2022/05/25 10:54:51;;;;;;;2.08;1.60;;;;;;;18.58;20.62;99560.38;5032842;28;20426;-56
2022/05/25 10:57:23;;;;;;;3.08;1.40;;;;;;;18.82;20.26;99564.72;5028904;28;20044;-58
2022/05/25 11:00:22;;;;;;;1.60;1.50;;;;;;;18.92;20.57;99550.88;5032211;28;20037;-54
2022/05/25 11:03:06;;;;;;;2.50;1.73;;;;;;;18.89;20.29;99557.50;5014756;28;20045;-57
2022/05/25 11:05:31;;;;;;;3.00;1.80;;;;;;;18.88;20.47;99547.69;5033229;28;20048;-56
2022/05/25 11:08:07;;;;;;;3.22;1.70;;;;;;;18.91;20.24;99557.34;5032846;28;20374;-57
2022/05/25 11:10:49;;;;;;;5.15;1.65;;;;;;;18.51;20.54;99543.97;5032385;28;20030;-59
2022/05/25 11:13:28;;;;;;;3.30;1.55;;;;;;;17.73;21.62;99546.69;5032431;28;20037;-57
2022/05/25 11:15:53;;;;;;;1.50;1.40;;;;;;;17.41;21.81;99532.31;5032327;28;20104;-57
2022/05/25 11:19:10;;;;;;;1.80;1.60;;;;;;;17.41;21.76;99535.00;5031513;28;20476;-58
2022/05/25 11:21:57;;;;;;;2.92;1.88;;;;;;;17.19;22.12;99534.75;5019930;28;20330;-57
2022/05/25 11:24:47;;;;;;;2.45;1.85;;;;;;;16.93;22.50;99538.50;5027565;28;20091;-57
2022/05/25 11:27:29;;;;;;;2.50;1.80;;;;;;;16.58;23.41;99525.22;5012467;28;20049;-56
2022/05/25 11:30:03;;;;;;;5.35;1.70;;;;;;;16.60;22.94;99530.44;5026433;28;20404;-54
2022/05/25 11:32:53;;;;;;;2.35;1.58;;;;;;;16.69;22.88;99531.28;5032508;28;20112;-58
2022/05/25 11:35:26;;;;;;;5.05;1.70;;;;;;;16.55;23.13;99524.69;5012310;28;20553;-56
2022/05/25 11:38:21;;;;;;;3.38;1.90;;;;;;;16.56;22.99;99523.69;5024264;28;20481;-56
2022/05/25 11:40:51;;;;;;;2.92;1.77;;;;;;;16.37;23.64;99531.13;5031434;28;20037;-58
2022/05/25 11:43:54;;;;;;;2.38;1.80;;;;;;;16.45;23.59;99532.97;5032345;28;20021;-60
2022/05/25 11:46:45;;;;;;;3.30;1.77;;;;;;;16.67;22.91;99526.06;5015910;28;20366;-58
2022/05/25 11:49:35;;;;;;;2.05;1.70;;;;;;;16.73;22.57;99525.34;5030877;28;20037;-56
2022/05/25 11:52:12;;;;;;;2.40;1.70;;;;;;;16.83;22.94;99527.88;5032184;28;20029;-55
2022/05/25 11:55:08;;;;;;;2.88;1.80;;;;;;;17.24;22.43;99534.19;5031472;28;20045;-55
2022/05/25 11:57:52;;;;;;;6.20;2.10;;;;;;;17.52;22.27;99537.31;5030972;28;20086;-59
2022/05/25 12:00:37;;;;;;;2.83;1.88;;;;;;;17.82;21.77;99534.78;5031651;28;20496;-59
2022/05/25 12:03:36;;;;;;;4.47;1.90;;;;;;;17.99;21.36;99531.97;5031347;28;20068;-60
2022/05/25 12:06:29;;;;;;;3.58;2.17;;;;;;;18.04;21.33;99529.59;5031698;28;20064;-52
2022/05/25 12:09:12;;;;;;;2.67;1.90;;;;;;;18.12;21.24;99521.44;5032204;28;20048;-57
2022/05/25 12:12:09;;;;;;;3.83;1.65;;;;;;;18.20;21.09;99529.47;5027854;28;20388;-59
2022/05/25 12:15:05;;;;;;;4.03;1.50;;;;;;;18.32;21.08;99520.91;5025048;28;20042;-58
2022/05/25 12:17:39;;;;;;;3.35;1.80;;;;;;;18.36;20.61;99517.66;5010734;28;20363;-58
2022/05/25 12:20:09;;;;;;;3.00;1.65;;;;;;;18.46;20.94;99527.44;5010343;28;20041;-60
2022/05/25 12:22:36;;;;;;;6.63;1.90;;;;;;;18.50;20.74;99520.59;5012091;28;20030;-59
2022/05/25 12:25:12;;;;;;;7.45;2.40;;;;;;;18.49;20.65;99489.94;5012005;28;20036;-59